createdAt,value
2018-05-11T00:00:25.275Z,11.84
2018-05-11T00:01:25.206Z,11.81
2018-05-11T00:02:25.114Z,11.82
2018-05-11T00:03:25.036Z,11.82
2018-05-11T00:04:24.988Z,11.84
2018-05-11T00:05:24.879Z,11.87
2018-05-11T00:06:24.797Z,11.93
2018-05-11T00:07:24.729Z,11.84
2018-05-11T00:08:24.657Z,11.79
2018-05-11T00:09:24.566Z,11.69
2018-05-11T00:10:24.476Z,11.67
2018-05-11T00:11:24.412Z,11.74
2018-05-11T00:12:24.316Z,11.75
2018-05-11T00:13:24.254Z,11.69
2018-05-11T00:14:24.178Z,11.69
2018-05-11T00:15:25.087Z,11.70
2018-05-11T00:16:24.003Z,11.74
2018-05-11T00:17:23.919Z,11.63
2018-05-11T00:18:23.830Z,11.59
2018-05-11T00:19:23.781Z,11.56
2018-05-11T00:20:23.703Z,11.56
2018-05-11T00:21:23.603Z,11.51
2018-05-11T00:22:23.520Z,11.51
2018-05-11T00:23:23.478Z,11.48
2018-05-11T00:24:23.379Z,11.49
2018-05-11T00:25:23.285Z,11.44
2018-05-11T00:26:23.195Z,11.48
2018-05-11T00:27:23.121Z,11.56
2018-05-11T00:28:23.042Z,11.51
2018-05-11T00:29:23.000Z,11.59
2018-05-11T00:30:22.885Z,11.53
2018-05-11T00:31:22.799Z,11.49
2018-05-11T00:32:22.716Z,11.49
2018-05-11T00:33:22.646Z,11.49
2018-05-11T00:34:22.577Z,11.54
2018-05-11T00:35:22.508Z,11.62
2018-05-11T00:36:22.403Z,11.59
2018-05-11T00:39:04.502Z,11.59
2018-05-11T00:40:05.463Z,11.51
2018-05-11T00:41:04.357Z,11.60
2018-05-11T00:42:04.266Z,11.54
2018-05-11T00:43:04.187Z,11.45
2018-05-11T00:45:46.102Z,11.66
2018-05-11T00:46:46.185Z,11.60
2018-05-11T00:47:45.890Z,11.64
2018-05-11T00:48:47.783Z,11.66
2018-05-11T00:49:45.707Z,11.60
2018-05-11T00:50:45.615Z,11.63
2018-05-11T00:51:45.568Z,11.57
2018-05-11T00:52:45.451Z,11.59
2018-05-11T00:53:45.375Z,11.56
2018-05-11T00:54:45.289Z,11.48
2018-05-11T00:55:45.217Z,11.53
2018-05-11T00:56:45.137Z,11.51
2018-05-11T00:57:45.064Z,11.48
2018-05-11T00:58:44.972Z,11.45
2018-05-11T00:59:44.888Z,11.39
2018-05-11T01:00:44.817Z,11.41
2018-05-11T01:01:44.730Z,11.35
2018-05-11T01:02:44.680Z,11.41
2018-05-11T01:03:44.575Z,11.38
2018-05-11T01:04:44.496Z,11.31
2018-05-11T01:05:44.440Z,11.21
2018-05-11T01:06:44.371Z,11.35
2018-05-11T01:07:44.277Z,11.27
2018-05-11T01:08:44.181Z,11.24
2018-05-11T01:09:44.103Z,11.23
2018-05-11T01:12:26.027Z,11.27
2018-05-11T01:13:25.953Z,11.30
2018-05-11T01:14:25.874Z,11.28
2018-05-11T01:15:25.776Z,11.26
2018-05-11T01:16:25.687Z,11.27
2018-05-11T01:17:26.643Z,11.28
2018-05-11T01:18:25.531Z,11.30
2018-05-11T01:19:25.467Z,11.28
2018-05-11T01:20:25.380Z,11.33
2018-05-11T01:21:25.294Z,11.30
2018-05-11T01:22:25.233Z,11.27
2018-05-11T01:23:25.136Z,11.31
2018-05-11T01:24:25.075Z,11.26
2018-05-11T01:25:24.969Z,11.23
2018-05-11T01:26:24.893Z,11.24
2018-05-11T01:27:24.845Z,11.23
2018-05-11T01:28:24.823Z,11.13
2018-05-11T01:29:24.702Z,11.24
2018-05-11T01:30:24.578Z,11.19
2018-05-11T01:31:24.502Z,11.30
2018-05-11T01:32:24.424Z,11.20
2018-05-11T01:35:06.570Z,11.21
2018-05-11T01:36:06.454Z,11.24
2018-05-11T01:37:06.364Z,11.23
2018-05-11T01:38:06.294Z,11.20
2018-05-11T01:39:06.212Z,11.19
2018-05-11T01:40:07.142Z,11.24
2018-05-11T01:41:06.040Z,11.20
2018-05-11T01:42:05.964Z,11.17
2018-05-11T01:43:05.875Z,11.12
2018-05-11T01:44:05.864Z,11.17
2018-05-11T01:45:05.735Z,11.13
2018-05-11T01:46:05.651Z,11.09
2018-05-11T01:47:05.562Z,11.21
2018-05-11T01:48:05.483Z,11.12
2018-05-11T01:49:05.405Z,11.17
2018-05-11T01:50:05.359Z,11.12
2018-05-11T01:51:05.241Z,11.20
2018-05-11T01:53:47.530Z,11.20
2018-05-11T01:54:47.470Z,11.08
2018-05-11T01:55:47.361Z,11.05
2018-05-11T01:56:47.292Z,11.03
2018-05-11T01:57:47.208Z,10.99
2018-05-11T01:58:47.123Z,10.99
2018-05-11T01:59:47.036Z,11.06
2018-05-11T02:00:47.026Z,11.01
2018-05-11T02:01:46.887Z,11.01
2018-05-11T02:02:46.819Z,10.93
2018-05-11T02:03:46.722Z,10.94
2018-05-11T02:04:46.664Z,10.99
2018-05-11T02:05:46.577Z,10.95
2018-05-11T02:06:46.492Z,10.90
2018-05-11T02:07:46.416Z,10.87
2018-05-11T02:08:46.344Z,10.78
2018-05-11T02:09:46.269Z,10.81
2018-05-11T02:10:46.169Z,10.86
2018-05-11T02:11:46.079Z,10.83
2018-05-11T02:12:46.007Z,10.91
2018-05-11T02:13:45.922Z,10.78
2018-05-11T02:14:45.880Z,10.84
2018-05-11T02:15:45.800Z,10.87
2018-05-11T02:16:45.684Z,10.88
2018-05-11T02:17:45.600Z,10.78
2018-05-11T02:18:45.524Z,10.87
2018-05-11T02:19:45.444Z,10.83
2018-05-11T02:20:45.388Z,10.75
2018-05-11T02:21:45.299Z,10.80
2018-05-11T02:22:45.212Z,10.75
2018-05-11T02:23:45.128Z,10.75
2018-05-11T02:24:45.053Z,10.72
2018-05-11T02:25:44.965Z,10.80
2018-05-11T02:26:45.934Z,10.73
2018-05-11T02:27:44.810Z,10.60
2018-05-11T02:28:44.757Z,10.63
2018-05-11T02:29:44.660Z,10.75
2018-05-11T02:30:45.602Z,10.73
2018-05-11T02:31:44.512Z,10.78
2018-05-11T02:32:44.507Z,10.78
2018-05-11T02:33:44.345Z,10.86
2018-05-11T02:34:44.243Z,10.80
2018-05-11T02:35:44.190Z,10.73
2018-05-11T02:36:45.108Z,10.73
2018-05-11T02:37:44.003Z,10.66
2018-05-11T02:38:43.938Z,10.69
2018-05-11T02:39:43.867Z,10.63
2018-05-11T02:40:43.797Z,10.57
2018-05-11T02:41:43.713Z,10.54
2018-05-11T02:42:43.608Z,10.55
2018-05-11T02:43:43.523Z,10.72
2018-05-11T02:44:43.456Z,10.54
2018-05-11T02:45:43.367Z,10.55
2018-05-11T02:46:43.317Z,10.55
2018-05-11T02:47:43.212Z,10.58
2018-05-11T02:50:25.055Z,10.52
2018-05-11T02:51:24.953Z,10.58
2018-05-11T02:52:24.894Z,10.62
2018-05-11T02:53:24.801Z,10.65
2018-05-11T02:54:24.720Z,10.57
2018-05-11T02:55:24.641Z,10.57
2018-05-11T02:56:24.544Z,10.62
2018-05-11T02:57:24.471Z,10.57
2018-05-11T02:58:24.409Z,10.78
2018-05-11T02:59:24.324Z,10.65
2018-05-11T03:00:24.229Z,10.63
2018-05-11T03:03:06.543Z,10.60
2018-05-11T03:04:06.474Z,10.58
2018-05-11T03:05:06.374Z,10.62
2018-05-11T03:06:06.323Z,10.78
2018-05-11T03:07:06.231Z,10.76
2018-05-11T03:08:06.150Z,10.91
2018-05-11T03:09:06.046Z,10.95
2018-05-11T03:10:05.984Z,11.03
2018-05-11T03:11:05.907Z,11.12
2018-05-11T03:13:48.057Z,10.84
2018-05-11T03:14:47.956Z,10.84
2018-05-11T03:15:47.881Z,10.84
2018-05-11T03:16:47.804Z,10.86
2018-05-11T03:17:47.705Z,10.86
2018-05-11T03:18:47.685Z,10.73
2018-05-11T03:19:47.549Z,10.72
2018-05-11T03:22:29.528Z,10.54
2018-05-11T03:25:11.560Z,10.51
2018-05-11T03:26:11.466Z,10.43
2018-05-11T03:27:11.383Z,10.36
2018-05-11T03:29:53.564Z,10.42
2018-05-11T03:30:53.458Z,10.42
2018-05-11T03:31:53.372Z,10.34
2018-05-11T03:32:53.298Z,10.39
2018-05-11T03:33:53.210Z,10.38
2018-05-11T03:34:53.158Z,10.43
2018-05-11T03:35:53.053Z,10.35
2018-05-11T03:36:52.979Z,10.46
2018-05-11T03:37:52.891Z,10.39
2018-05-11T03:38:52.822Z,10.39
2018-05-11T03:39:52.792Z,10.43
2018-05-11T03:40:52.652Z,10.34
2018-05-11T03:41:52.579Z,10.35
2018-05-11T03:42:52.503Z,10.36
2018-05-11T03:43:52.409Z,10.32
2018-05-11T03:44:52.405Z,10.39
2018-05-11T03:45:52.246Z,10.34
2018-05-11T03:46:52.173Z,10.35
2018-05-11T03:47:52.090Z,10.42
2018-05-11T03:48:52.030Z,10.26
2018-05-11T03:49:51.931Z,10.34
2018-05-11T03:50:52.873Z,10.29
2018-05-11T03:51:51.770Z,10.38
2018-05-11T03:52:51.693Z,10.43
2018-05-11T03:53:51.620Z,10.43
2018-05-11T03:54:51.541Z,10.46
2018-05-11T03:55:51.464Z,10.52
2018-05-11T03:56:51.376Z,10.52
2018-05-11T03:57:51.297Z,10.47
2018-05-11T03:58:51.225Z,10.51
2018-05-11T03:59:51.141Z,10.46
2018-05-11T04:00:52.072Z,10.43
2018-05-11T04:01:51.138Z,10.39
2018-05-11T04:02:50.901Z,10.47
2018-05-11T04:03:50.813Z,10.49
2018-05-11T04:06:33.065Z,10.39
2018-05-11T04:07:32.998Z,10.38
2018-05-11T04:08:32.883Z,10.39
2018-05-11T04:09:32.822Z,10.55
2018-05-11T04:10:32.721Z,10.38
2018-05-11T04:13:14.614Z,10.51
2018-05-11T04:15:56.555Z,10.57
2018-05-11T04:16:57.491Z,10.58
2018-05-11T04:17:56.415Z,10.51
2018-05-11T04:18:56.320Z,10.57
2018-05-11T04:19:56.215Z,10.55
2018-05-11T04:20:56.184Z,10.36
2018-05-11T04:21:56.057Z,10.47
2018-05-11T04:22:57.003Z,10.38
2018-05-11T04:23:55.905Z,10.54
2018-05-11T04:26:38.048Z,10.43
2018-05-11T04:27:38.989Z,10.36
2018-05-11T04:28:37.902Z,10.38
2018-05-11T04:29:37.808Z,10.39
2018-05-11T04:30:37.739Z,10.47
2018-05-11T04:31:37.654Z,10.47
2018-05-11T04:32:37.565Z,10.49
2018-05-11T04:33:37.535Z,10.52
2018-05-11T04:34:37.404Z,10.55
2018-05-11T04:35:37.327Z,10.63
2018-05-11T04:36:37.253Z,10.62
2018-05-11T04:37:37.179Z,10.55
2018-05-11T04:38:37.099Z,10.52
2018-05-11T04:39:38.038Z,10.58
2018-05-11T04:40:36.928Z,10.54
2018-05-11T04:41:36.857Z,10.60
2018-05-11T04:42:36.761Z,10.57
2018-05-11T04:43:37.706Z,10.62
2018-05-11T04:44:36.606Z,10.62
2018-05-11T04:45:36.539Z,10.52
2018-05-11T04:46:36.436Z,10.62
2018-05-11T04:49:18.568Z,10.54
2018-05-11T04:50:18.482Z,10.58
2018-05-11T04:51:18.405Z,10.69
2018-05-11T04:52:18.322Z,10.72
2018-05-11T04:53:18.233Z,10.69
2018-05-11T04:54:18.156Z,10.81
2018-05-11T04:55:18.071Z,10.86
2018-05-11T04:56:18.014Z,10.93
2018-05-11T04:57:17.909Z,11.13
2018-05-11T04:58:17.842Z,11.20
2018-05-11T04:59:17.756Z,11.17
2018-05-11T05:00:17.686Z,11.24
2018-05-11T05:01:17.589Z,11.24
2018-05-11T05:02:17.518Z,11.23
2018-05-11T05:03:17.424Z,11.23
2018-05-11T05:04:17.472Z,11.21
2018-05-11T05:05:17.295Z,11.27
2018-05-11T05:07:59.579Z,11.31
2018-05-11T05:08:59.489Z,11.35
2018-05-11T05:09:59.434Z,11.31
2018-05-11T05:10:59.329Z,11.39
2018-05-11T05:11:59.232Z,11.46
2018-05-11T05:12:59.168Z,11.31
2018-05-11T05:13:59.089Z,11.46
2018-05-11T05:14:59.031Z,11.54
2018-05-11T05:15:58.922Z,11.59
2018-05-11T05:16:58.865Z,11.63
2018-05-11T05:17:58.755Z,11.74
2018-05-11T05:18:58.709Z,11.72
2018-05-11T05:19:58.633Z,11.75
2018-05-11T05:20:58.522Z,11.66
2018-05-11T05:21:58.433Z,11.75
2018-05-11T05:22:58.391Z,11.69
2018-05-11T05:23:58.295Z,11.77
2018-05-11T05:24:59.230Z,11.82
2018-05-11T05:25:58.120Z,11.85
2018-05-11T05:26:58.061Z,11.77
2018-05-11T05:27:57.962Z,11.88
2018-05-11T05:30:40.084Z,11.90
2018-05-11T05:33:22.063Z,12.01
2018-05-11T05:34:22.013Z,12.11
2018-05-11T05:35:21.923Z,12.21
2018-05-11T05:38:04.064Z,12.23
2018-05-11T05:40:46.084Z,12.29
2018-05-11T05:41:45.993Z,12.48
2018-05-11T05:42:45.910Z,12.59
2018-05-11T05:43:45.844Z,12.74
2018-05-11T05:44:45.762Z,12.88
2018-05-11T05:45:45.754Z,13.04
2018-05-11T05:46:45.600Z,13.16
2018-05-11T05:47:45.518Z,13.27
2018-05-11T05:48:45.445Z,13.24
2018-05-11T05:49:45.364Z,13.28
2018-05-11T05:50:45.264Z,13.24
2018-05-11T05:51:46.215Z,13.25
2018-05-11T05:52:45.115Z,13.46
2018-05-11T05:53:45.038Z,13.51
2018-05-11T05:54:44.947Z,13.50
2018-05-11T05:55:44.872Z,13.17
2018-05-11T05:56:44.830Z,12.89
2018-05-11T05:57:44.726Z,13.14
2018-05-11T05:58:44.640Z,13.19
2018-05-11T05:59:44.565Z,13.29
2018-05-11T06:00:44.495Z,13.29
2018-05-11T06:03:26.585Z,13.44
2018-05-11T06:06:08.564Z,13.72
2018-05-11T06:07:08.554Z,13.93
2018-05-11T06:08:08.499Z,14.36
2018-05-11T06:09:08.434Z,14.69
2018-05-11T06:10:08.267Z,14.95
2018-05-11T06:11:08.237Z,15.73
2018-05-11T06:12:08.109Z,15.91
2018-05-11T06:13:08.149Z,16.54
2018-05-11T06:14:07.946Z,17.06
2018-05-11T06:15:07.955Z,17.65
2018-05-11T06:16:07.783Z,17.27
2018-05-11T06:17:07.785Z,17.58
2018-05-11T06:18:07.616Z,17.68
2018-05-11T06:19:07.568Z,17.86
2018-05-11T06:20:07.480Z,17.65
2018-05-11T06:21:07.475Z,17.63
2018-05-11T06:22:07.468Z,17.63
2018-05-11T06:23:07.278Z,17.63
2018-05-11T06:24:07.155Z,17.81
2018-05-11T06:25:07.197Z,17.21
2018-05-11T06:26:06.999Z,17.45
2018-05-11T06:27:07.035Z,17.58
2018-05-11T06:28:06.856Z,17.36
2018-05-11T06:29:06.814Z,17.60
2018-05-11T06:30:06.676Z,18.09
2018-05-11T06:31:06.726Z,18.13
2018-05-11T06:32:06.532Z,18.62
2018-05-11T06:33:06.593Z,18.83
2018-05-11T06:34:06.386Z,18.57
2018-05-11T06:35:06.333Z,18.59
2018-05-11T06:36:06.214Z,18.51
2018-05-11T06:37:06.250Z,18.57
2018-05-11T06:38:06.094Z,18.75
2018-05-11T06:39:06.057Z,18.75
2018-05-11T06:40:05.912Z,19.17
2018-05-11T06:41:05.875Z,19.10
2018-05-11T06:42:05.773Z,18.56
2018-05-11T06:43:05.705Z,19.27
2018-05-11T06:44:05.602Z,19.64
2018-05-11T06:45:05.583Z,19.70
2018-05-11T06:46:05.533Z,19.16
2018-05-11T06:48:47.610Z,19.85
2018-05-11T06:51:29.586Z,20.61
2018-05-11T06:54:11.606Z,19.10
2018-05-11T06:55:11.592Z,19.60
2018-05-11T06:56:11.475Z,20.23
2018-05-11T06:57:11.432Z,19.80
2018-05-11T06:58:11.320Z,19.12
2018-05-11T07:00:53.656Z,19.46
2018-05-11T07:01:53.524Z,20.02
2018-05-11T07:02:53.473Z,20.35
2018-05-11T07:03:53.471Z,20.04
2018-05-11T07:04:53.313Z,20.58
2018-05-11T07:05:53.336Z,20.76
2018-05-11T07:06:53.162Z,20.71
2018-05-11T07:09:35.622Z,20.41
2018-05-11T07:10:35.547Z,19.75
2018-05-11T07:11:35.443Z,18.66
2018-05-11T07:12:35.455Z,18.35
2018-05-11T07:13:35.279Z,19.12
2018-05-11T07:14:35.301Z,19.72
2018-05-11T07:15:35.137Z,19.46
2018-05-11T07:16:35.179Z,20.15
2018-05-11T07:17:34.989Z,19.49
2018-05-11T07:20:17.131Z,20.01
2018-05-11T07:23:03.097Z,20.53
2018-05-11T07:24:03.089Z,20.76
2018-05-11T07:25:02.978Z,21.22
2018-05-11T07:26:03.001Z,21.53
2018-05-11T07:27:02.791Z,21.55
2018-05-11T07:28:02.808Z,21.15
2018-05-11T07:29:02.640Z,20.35
2018-05-11T07:30:02.638Z,19.90
2018-05-11T07:31:02.495Z,20.12
2018-05-11T07:32:02.546Z,20.53
2018-05-11T07:33:02.370Z,20.88
2018-05-11T07:34:02.334Z,21.21
2018-05-11T07:35:02.284Z,21.37
2018-05-11T07:36:02.232Z,21.71
2018-05-11T07:37:02.045Z,22.01
2018-05-11T07:38:02.066Z,21.68
2018-05-11T07:39:01.908Z,21.38
2018-05-11T07:40:01.863Z,20.53
2018-05-11T07:41:01.778Z,19.67
2018-05-11T07:42:01.760Z,19.87
2018-05-11T07:43:01.642Z,20.50
2018-05-11T07:44:01.577Z,21.11
2018-05-11T07:45:01.450Z,21.49
2018-05-11T07:46:01.525Z,21.86
2018-05-11T07:47:01.304Z,21.71
2018-05-11T07:49:43.607Z,20.69
2018-05-11T07:50:43.624Z,21.18
2018-05-11T07:51:43.464Z,21.68
2018-05-11T07:54:25.646Z,22.44
2018-05-11T07:55:25.675Z,22.36
2018-05-11T07:56:25.494Z,22.60
2018-05-11T07:57:25.431Z,23.39
2018-05-11T07:58:25.331Z,23.59
2018-05-11T08:01:07.612Z,20.58
2018-05-11T08:02:07.709Z,21.55
2018-05-11T08:03:07.461Z,21.82
2018-05-11T08:04:07.444Z,22.41
2018-05-11T08:05:07.332Z,22.67
2018-05-11T08:06:07.395Z,22.52
2018-05-11T08:07:07.202Z,20.96
2018-05-11T08:08:07.172Z,21.34
2018-05-11T08:09:07.038Z,21.24
2018-05-11T08:10:07.105Z,20.13
2018-05-11T08:11:06.890Z,19.62
2018-05-11T08:12:06.891Z,19.12
2018-05-11T08:13:06.769Z,18.32
2018-05-11T08:14:06.807Z,17.98
2018-05-11T08:15:06.608Z,18.21
2018-05-11T08:16:06.595Z,18.09
2018-05-11T08:17:06.482Z,18.25
2018-05-11T08:18:06.383Z,17.98
2018-05-11T08:19:06.313Z,18.04
2018-05-11T08:21:48.644Z,18.91
2018-05-11T08:22:48.558Z,18.51
2018-05-11T08:23:48.479Z,18.54
2018-05-11T08:24:48.396Z,18.54
2018-05-11T08:25:48.370Z,18.69
2018-05-11T08:26:48.342Z,18.87
2018-05-11T08:27:48.205Z,19.13
2018-05-11T08:30:30.120Z,19.12
2018-05-11T08:33:12.144Z,19.92
2018-05-11T08:34:12.048Z,19.98
2018-05-11T08:35:11.977Z,20.61
2018-05-11T08:36:11.901Z,20.31
2018-05-11T08:37:11.832Z,20.08
2018-05-11T08:38:11.796Z,20.13
2018-05-11T08:39:11.669Z,20.00
2018-05-11T08:40:11.593Z,20.57
2018-05-11T08:41:11.574Z,22.23
2018-05-11T08:43:53.662Z,22.36
2018-05-11T08:46:35.623Z,20.60
2018-05-11T08:47:35.573Z,20.56
2018-05-11T08:48:35.476Z,20.73
2018-05-11T08:51:17.631Z,22.31
2018-05-11T08:52:17.564Z,22.31
2018-05-11T08:53:17.513Z,21.64
2018-05-11T08:54:17.419Z,21.52
2018-05-11T08:55:17.342Z,20.97
2018-05-11T08:56:17.268Z,20.71
2018-05-11T08:57:17.200Z,21.36
2018-05-11T08:58:17.140Z,20.61
2018-05-11T08:59:17.045Z,21.58
2018-05-11T09:00:16.986Z,22.56
2018-05-11T09:01:16.914Z,23.90
2018-05-11T09:02:16.828Z,24.15
2018-05-11T09:03:16.768Z,23.71
2018-05-11T09:04:16.686Z,23.93
2018-05-11T09:05:16.609Z,24.41
2018-05-11T09:06:16.543Z,25.05
2018-05-11T09:07:16.462Z,25.24
2018-05-11T09:08:16.416Z,23.69
2018-05-11T09:09:16.347Z,22.31
2018-05-11T09:10:16.347Z,22.51
2018-05-11T09:11:16.174Z,23.16
2018-05-11T09:12:16.135Z,21.66
2018-05-11T09:13:16.040Z,20.61
2018-05-11T09:14:16.016Z,19.75
2018-05-11T09:15:15.895Z,19.60
2018-05-11T09:17:58.141Z,20.64
2018-05-11T09:20:40.154Z,22.08
2018-05-11T09:21:40.099Z,22.57
2018-05-11T09:22:39.988Z,23.14
2018-05-11T09:23:39.936Z,23.60
2018-05-11T09:24:39.844Z,23.81
2018-05-11T09:25:39.811Z,24.27
2018-05-11T09:26:39.715Z,24.51
2018-05-11T09:27:39.739Z,23.39
2018-05-11T09:28:39.626Z,22.15
2018-05-11T09:31:21.670Z,22.38
2018-05-11T09:32:21.588Z,22.70
2018-05-11T09:33:21.513Z,21.79
2018-05-11T09:34:21.435Z,22.46
2018-05-11T09:35:21.374Z,23.49
2018-05-11T09:36:21.315Z,24.48
2018-05-11T09:37:21.214Z,25.05
2018-05-11T09:38:21.154Z,25.53
2018-05-11T09:39:21.069Z,25.17
2018-05-11T09:40:21.018Z,25.19
2018-05-11T09:41:20.977Z,25.36
2018-05-11T09:42:20.993Z,25.57
2018-05-11T09:43:20.794Z,25.90
2018-05-11T09:44:20.809Z,25.45
2018-05-11T09:45:20.656Z,23.69
2018-05-11T09:46:21.678Z,22.57
2018-05-11T09:47:20.529Z,21.55
2018-05-11T09:48:20.539Z,21.71
2018-05-11T09:49:20.390Z,22.33
2018-05-11T09:50:20.337Z,22.31
2018-05-11T09:51:20.269Z,22.97
2018-05-11T09:52:21.309Z,23.71
2018-05-11T09:53:20.104Z,24.08
2018-05-11T09:54:20.160Z,23.63
2018-05-11T09:55:19.977Z,23.82
2018-05-11T09:58:02.187Z,24.29
2018-05-11T09:59:02.187Z,24.60
2018-05-11T10:00:02.025Z,24.00
2018-05-11T10:01:02.101Z,23.53
2018-05-11T10:02:01.888Z,23.78
2018-05-11T10:03:01.846Z,24.15
2018-05-11T10:04:01.746Z,24.77
2018-05-11T10:05:01.729Z,24.98
2018-05-11T10:06:01.607Z,25.04
2018-05-11T10:08:43.671Z,25.26
2018-05-11T10:09:43.593Z,25.11
2018-05-11T10:10:43.524Z,24.21
2018-05-11T10:13:25.685Z,24.33
2018-05-11T10:14:25.713Z,24.80
2018-05-11T10:15:25.524Z,25.08
2018-05-11T10:16:25.515Z,24.84
2018-05-11T10:17:25.394Z,24.99
2018-05-11T10:18:26.402Z,24.99
2018-05-11T10:19:25.276Z,24.84
2018-05-11T10:20:25.238Z,25.20
2018-05-11T10:21:25.123Z,25.39
2018-05-11T10:22:25.151Z,25.59
2018-05-11T10:23:25.020Z,24.83
2018-05-11T10:24:24.959Z,24.56
2018-05-11T10:25:24.852Z,25.42
2018-05-11T10:26:24.808Z,25.34
2018-05-11T10:27:24.726Z,25.48
2018-05-11T10:28:24.819Z,25.89
2018-05-11T10:29:24.602Z,26.12
2018-05-11T10:30:24.589Z,25.35
2018-05-11T10:31:24.464Z,24.99
2018-05-11T10:32:24.515Z,25.17
2018-05-11T10:33:24.390Z,26.00
2018-05-11T10:34:24.315Z,26.68
2018-05-11T10:35:24.202Z,26.76
2018-05-11T10:36:24.221Z,25.42
2018-05-11T10:37:24.064Z,25.64
2018-05-11T10:38:24.140Z,25.83
2018-05-11T10:39:23.977Z,25.97
2018-05-11T10:40:23.935Z,25.19
2018-05-11T10:41:23.805Z,25.59
2018-05-11T10:42:23.842Z,25.60
2018-05-11T10:43:23.671Z,25.72
2018-05-11T10:44:23.702Z,25.26
2018-05-11T10:45:23.551Z,25.42
2018-05-11T10:46:23.691Z,24.37
2018-05-11T10:47:23.475Z,23.25
2018-05-11T10:48:23.511Z,22.38
2018-05-11T10:49:23.378Z,22.64
2018-05-11T10:50:23.289Z,23.52
2018-05-11T10:51:23.148Z,23.74
2018-05-11T10:52:23.222Z,24.30
2018-05-11T10:53:23.014Z,24.46
2018-05-11T10:54:23.044Z,25.09
2018-05-11T10:55:22.884Z,24.36
2018-05-11T10:56:22.912Z,24.12
2018-05-11T10:57:22.746Z,24.27
2018-05-11T10:58:22.769Z,24.52
2018-05-11T10:59:22.641Z,23.41
2018-05-11T11:00:22.777Z,21.93
2018-05-11T11:01:22.628Z,22.21
2018-05-11T11:02:22.594Z,22.69
2018-05-11T11:03:22.396Z,23.07
2018-05-11T11:04:22.293Z,23.37
2018-05-11T11:05:22.247Z,23.60
2018-05-11T11:06:22.304Z,22.97
2018-05-11T11:07:22.089Z,22.70
2018-05-11T11:08:22.080Z,23.81
2018-05-11T11:09:21.950Z,24.61
2018-05-11T11:10:22.023Z,24.93
2018-05-11T11:11:21.808Z,24.67
2018-05-11T11:12:21.793Z,24.86
2018-05-11T11:13:21.672Z,25.04
2018-05-11T11:14:21.765Z,24.19
2018-05-11T11:15:21.557Z,23.92
2018-05-11T11:16:21.528Z,24.60
2018-05-11T11:17:21.407Z,24.45
2018-05-11T11:18:21.359Z,23.39
2018-05-11T11:19:21.284Z,23.54
2018-05-11T11:22:03.208Z,24.42
2018-05-11T11:23:03.221Z,25.20
2018-05-11T11:24:03.076Z,25.66
2018-05-11T11:25:03.044Z,25.44
2018-05-11T11:26:02.940Z,25.04
2018-05-11T11:27:02.986Z,25.27
2018-05-11T11:28:02.789Z,26.17
2018-05-11T11:29:02.753Z,26.84
2018-05-11T11:30:02.658Z,26.59
2018-05-11T11:31:02.712Z,26.47
2018-05-11T11:32:02.510Z,26.42
2018-05-11T11:33:02.576Z,26.17
2018-05-11T11:34:02.396Z,26.65
2018-05-11T11:36:44.723Z,24.70
2018-05-11T11:37:44.698Z,24.84
2018-05-11T11:38:44.559Z,24.39
2018-05-11T11:41:26.711Z,23.60
2018-05-11T11:42:26.750Z,24.41
2018-05-11T11:43:26.576Z,24.83
2018-05-11T11:44:26.609Z,24.61
2018-05-11T11:45:26.434Z,24.68
2018-05-11T11:46:26.422Z,25.11
2018-05-11T11:47:26.389Z,25.49
2018-05-11T11:50:08.207Z,25.54
2018-05-11T11:51:08.143Z,25.46
2018-05-11T11:52:08.089Z,23.31
2018-05-11T11:53:08.070Z,22.78
2018-05-11T11:54:07.946Z,22.96
2018-05-11T11:55:07.886Z,23.25
2018-05-11T11:56:07.816Z,23.60
2018-05-11T11:57:07.788Z,24.00
2018-05-11T11:58:07.679Z,24.55
2018-05-11T11:59:07.604Z,24.89
2018-05-11T12:00:07.529Z,25.04
2018-05-11T12:01:07.499Z,25.31
2018-05-11T12:02:07.423Z,25.05
2018-05-11T12:03:07.412Z,24.60
2018-05-11T12:04:07.244Z,23.79
2018-05-11T12:05:07.292Z,23.82
2018-05-11T12:06:07.092Z,22.70
2018-05-11T12:07:07.116Z,22.66
2018-05-11T12:08:06.977Z,22.76
2018-05-11T12:09:08.055Z,22.30
2018-05-11T12:10:06.808Z,22.33
2018-05-11T12:11:06.842Z,22.35
2018-05-11T12:12:06.666Z,22.30
2018-05-11T12:13:06.637Z,22.27
2018-05-11T12:14:06.514Z,22.39
2018-05-11T12:15:06.623Z,22.44
2018-05-11T12:16:06.388Z,22.35
2018-05-11T12:17:06.316Z,22.44
2018-05-11T12:18:06.268Z,22.39
2018-05-11T12:19:06.193Z,22.08
2018-05-11T12:20:06.082Z,21.89
2018-05-11T12:21:06.007Z,22.23
2018-05-11T12:22:05.926Z,22.45
2018-05-11T12:23:06.069Z,22.72
2018-05-11T12:24:05.832Z,23.11
2018-05-11T12:26:47.710Z,21.31
2018-05-11T12:27:47.687Z,21.28
2018-05-11T12:28:47.579Z,21.58
2018-05-11T12:29:47.660Z,21.28
2018-05-11T12:30:47.412Z,21.11
2018-05-11T12:31:47.405Z,21.08
2018-05-11T12:32:47.279Z,21.33
2018-05-11T12:33:47.220Z,21.38
2018-05-11T12:34:47.188Z,21.38
2018-05-11T12:37:29.206Z,21.27
2018-05-11T12:38:29.223Z,21.73
2018-05-11T12:39:29.090Z,22.02
2018-05-11T12:40:29.053Z,22.35
2018-05-11T12:41:28.914Z,22.54
2018-05-11T12:42:28.862Z,22.54
2018-05-11T12:43:28.773Z,22.45
2018-05-11T12:44:28.795Z,22.41
2018-05-11T12:45:28.702Z,21.82
2018-05-11T12:46:28.672Z,21.67
2018-05-11T12:47:28.559Z,21.13
2018-05-11T12:48:28.387Z,20.83
2018-05-11T12:49:28.375Z,20.75
2018-05-11T12:50:29.286Z,21.06
2018-05-11T12:51:28.273Z,21.09
2018-05-11T12:52:28.190Z,21.06
2018-05-11T12:53:28.132Z,21.03
2018-05-11T12:54:28.025Z,21.18
2018-05-11T12:55:27.864Z,21.30
2018-05-11T12:56:27.857Z,21.42
2018-05-11T12:57:27.714Z,21.58
2018-05-11T13:00:09.775Z,22.19
2018-05-11T13:02:51.722Z,22.69
2018-05-11T13:05:33.750Z,22.96
2018-05-11T13:06:33.677Z,22.75
2018-05-11T13:07:33.621Z,22.67
2018-05-11T13:08:33.616Z,22.02
2018-05-11T13:09:33.442Z,21.52
2018-05-11T13:10:34.445Z,21.42
2018-05-11T13:11:33.338Z,21.56
2018-05-11T13:14:15.219Z,21.19
2018-05-11T13:16:57.259Z,21.15
2018-05-11T13:17:57.222Z,21.30
2018-05-11T13:18:57.081Z,21.21
2018-05-11T13:19:57.037Z,21.31
2018-05-11T13:20:56.935Z,21.43
2018-05-11T13:21:56.991Z,20.93
2018-05-11T13:22:56.764Z,21.12
2018-05-11T13:25:38.742Z,21.15
2018-05-11T13:26:38.785Z,21.03
2018-05-11T13:27:38.583Z,21.22
2018-05-11T13:28:38.569Z,21.34
2018-05-11T13:29:38.432Z,21.56
2018-05-11T13:32:20.766Z,20.96
2018-05-11T13:33:20.771Z,21.16
2018-05-11T13:34:20.573Z,21.55
2018-05-11T13:35:20.549Z,21.51
2018-05-11T13:36:20.448Z,21.61
2018-05-11T13:37:20.360Z,21.90
2018-05-11T13:38:20.302Z,22.04
2018-05-11T13:39:20.319Z,21.74
2018-05-11T13:40:20.121Z,21.63
2018-05-11T13:41:21.075Z,21.77
2018-05-11T13:42:19.972Z,21.77
2018-05-11T13:43:19.931Z,21.73
2018-05-11T13:44:19.850Z,21.63
2018-05-11T13:45:19.762Z,21.46
2018-05-11T13:46:19.679Z,21.49
2018-05-11T13:47:19.604Z,20.96
2018-05-11T13:48:19.675Z,21.15
2018-05-11T13:49:19.560Z,21.12
2018-05-11T13:50:19.368Z,21.26
2018-05-11T13:53:01.291Z,21.49
2018-05-11T13:54:01.267Z,21.53
2018-05-11T13:55:01.081Z,21.51
2018-05-11T13:57:43.273Z,21.68
2018-05-11T13:58:43.307Z,21.66
2018-05-11T13:59:43.084Z,21.85
2018-05-11T14:00:43.014Z,21.83
2018-05-11T14:01:42.950Z,21.61
2018-05-11T14:04:25.299Z,21.63
2018-05-11T14:07:07.250Z,22.27
2018-05-11T14:08:07.295Z,22.35
2018-05-11T14:09:07.121Z,22.57
2018-05-11T14:10:07.100Z,22.69
2018-05-11T14:11:06.947Z,22.69
2018-05-11T14:12:06.870Z,22.69
2018-05-11T14:13:06.815Z,22.48
2018-05-11T14:14:06.860Z,22.23
2018-05-11T14:15:06.643Z,22.20
2018-05-11T14:16:06.578Z,22.09
2018-05-11T14:17:06.492Z,22.01
2018-05-11T14:18:06.436Z,21.91
2018-05-11T14:19:06.350Z,21.81
2018-05-11T14:20:06.263Z,21.89
2018-05-11T14:21:06.179Z,21.83
2018-05-11T14:22:06.151Z,21.81
2018-05-11T14:23:06.043Z,21.59
2018-05-11T14:24:06.091Z,21.66
2018-05-11T14:25:05.884Z,21.82
2018-05-11T14:26:05.866Z,22.06
2018-05-11T14:27:05.733Z,22.12
2018-05-11T14:28:05.781Z,22.20
2018-05-11T14:29:05.585Z,22.36
2018-05-11T14:30:05.626Z,22.31
2018-05-11T14:31:05.443Z,22.20
2018-05-11T14:33:47.249Z,21.77
2018-05-11T14:34:48.202Z,21.89
2018-05-11T14:35:47.120Z,21.77
2018-05-11T14:36:47.059Z,21.93
2018-05-11T14:37:46.950Z,22.04
2018-05-11T14:38:46.954Z,21.83